KPMV

Plattsmouth Municipal Airport

Plattsmouth, Nebraska, USA
METAR KPMV 231115Z AUTO 04007KT 10SM CLR 06/M01 A3033 RMK AO2 T00601011
Observed Flight Rules
Oct-23 @ 11:15 UTC (35 minutes ago) Visual Flight Rules
Wind Visibility Clouds
40° at 7 knots 10 miles
  • Clear skies
Temperatures Readings
Current 6°C / 43°F
Dewpoint -1°C / 30°F
Humidity 61%
Altimeter 30.33" Hg
Pressure 1027 hPa
Elevation 367
METAR KPMV 231115Z AUTO 04007KT 10SM CLR 06/M01 A3033 RMK AO2 T00601011
Observed Flight Rules
Oct-23 @ 11:15 UTC
(35 minutes ago)
VFR
Wind Visibility
40° at 7 knots 10 miles
Clouds
  • Clear skies
Temperature Dewpoint
6°C / 43°F -1°C / 30°F
Humidity Altimeter Pressure
61% 30.33" Hg 1027 hPa